Terminal Aerodrome Forecast
Issued by NWS

Home | Current Version | Previous Version | Graphics & Text | Print | Product List | Glossary On
Versions: 1 2 3 4 5 6 7 8 9 10 11 12 13 14 15 16 17 18 19 20 21 22 23 24 25 26 27 28 29 30 31 32 33 34 35 36 37 38 39 40 41 42 43 44 45 46 47 48
000
FTUS45 KBOU 131001 AAB
TAFBJC
TAF AMD
KBJC 131001Z 1310/1406 29012KT P6SM BKN220
     FM131200 30006KT P6SM BKN220
     FM131500 32006KT P6SM FEW080 SCT200
     FM132100 04008KT P6SM SCT080 BKN200
     FM140000 06008KT P6SM VCSH SCT025 OVC050 PROB30 1403/1406 3SM
      -SN BR BKN015 OVC025=

USA.gov is the U.S. government's official web portal to all federal, state and local government web resources and services.